createdAt,value
2017-10-30T00:01:31.342Z,77.70
2017-10-30T00:03:57.587Z,78.00
2017-10-30T00:06:23.835Z,79.10
2017-10-30T00:08:50.032Z,78.80
2017-10-30T00:11:16.264Z,77.40
2017-10-30T00:13:42.526Z,76.90
2017-10-30T00:16:08.739Z,77.80
2017-10-30T00:18:34.980Z,77.70
2017-10-30T00:21:01.590Z,78.10
2017-10-30T00:23:27.821Z,78.10
2017-10-30T00:25:54.048Z,78.80
2017-10-30T00:28:20.278Z,78.40
2017-10-30T00:30:46.521Z,78.90
2017-10-30T00:33:12.744Z,78.90
2017-10-30T00:35:38.950Z,79.30
2017-10-30T00:38:05.175Z,79.40
2017-10-30T00:40:31.405Z,79.10
2017-10-30T00:42:57.613Z,79.10
2017-10-30T00:45:23.843Z,78.90
2017-10-30T00:47:50.070Z,79.00
2017-10-30T00:50:16.307Z,78.80
2017-10-30T00:52:42.574Z,78.60
2017-10-30T00:55:08.804Z,79.00
2017-10-30T00:57:35.014Z,78.90
2017-10-30T01:00:01.244Z,79.60
2017-10-30T01:02:27.491Z,79.00
2017-10-30T01:04:53.689Z,79.10
2017-10-30T01:07:19.919Z,79.20
2017-10-30T01:09:46.140Z,78.90
2017-10-30T01:12:12.354Z,79.30
2017-10-30T01:14:38.850Z,78.30
2017-10-30T01:17:05.453Z,78.60
2017-10-30T01:19:31.650Z,78.60
2017-10-30T01:21:57.916Z,79.40
2017-10-30T01:24:24.114Z,79.40
2017-10-30T01:26:50.337Z,79.00
2017-10-30T01:29:16.542Z,78.70
2017-10-30T01:31:42.794Z,78.40
2017-10-30T01:34:09.010Z,78.50
2017-10-30T01:36:35.253Z,78.30
2017-10-30T01:39:01.451Z,78.30
2017-10-30T01:41:27.699Z,78.50
2017-10-30T01:43:53.934Z,78.50
2017-10-30T01:46:20.199Z,78.70
2017-10-30T01:48:46.433Z,78.60
2017-10-30T01:51:12.658Z,78.90
2017-10-30T01:53:38.870Z,79.10
2017-10-30T01:56:05.094Z,79.30
2017-10-30T01:58:31.334Z,78.80
2017-10-30T02:00:57.540Z,78.90
2017-10-30T02:03:23.762Z,78.20
2017-10-30T02:05:49.981Z,78.70
2017-10-30T02:08:16.209Z,78.90
2017-10-30T02:10:43.386Z,78.50
2017-10-30T02:13:09.616Z,78.90
2017-10-30T02:15:35.820Z,77.90
2017-10-30T02:18:02.085Z,77.40
2017-10-30T02:20:28.388Z,77.10
2017-10-30T02:22:55.649Z,78.20
2017-10-30T02:25:21.885Z,79.10
2017-10-30T02:27:48.142Z,78.50
2017-10-30T02:30:14.775Z,78.50
2017-10-30T02:32:41.037Z,78.50
2017-10-30T02:35:07.284Z,78.60
2017-10-30T02:37:33.541Z,78.90
2017-10-30T02:39:59.772Z,79.50
2017-10-30T02:42:26.004Z,79.40
2017-10-30T02:44:52.267Z,78.90
2017-10-30T02:47:18.974Z,79.00
2017-10-30T02:49:45.208Z,79.40
2017-10-30T02:52:11.446Z,80.00
2017-10-30T02:54:38.077Z,79.50
2017-10-30T02:57:04.301Z,79.50
2017-10-30T02:59:30.546Z,79.20
2017-10-30T03:01:57.138Z,79.10
2017-10-30T03:04:23.389Z,79.10
2017-10-30T03:06:49.656Z,79.50
2017-10-30T03:09:15.920Z,79.30
2017-10-30T03:11:42.182Z,79.20
2017-10-30T03:14:08.448Z,79.70
2017-10-30T03:16:34.680Z,79.90
2017-10-30T03:19:00.944Z,80.10
2017-10-30T03:21:27.242Z,80.90
2017-10-30T03:23:53.481Z,80.30
2017-10-30T03:26:19.705Z,80.60
2017-10-30T03:28:45.936Z,81.10
2017-10-30T03:31:12.156Z,80.80
2017-10-30T03:33:38.415Z,81.40
2017-10-30T03:36:04.637Z,81.20
2017-10-30T03:38:30.848Z,81.40
2017-10-30T03:40:57.077Z,80.30
2017-10-30T03:43:23.298Z,80.30
2017-10-30T03:45:49.543Z,80.70
2017-10-30T03:48:15.765Z,79.50
2017-10-30T03:50:42.017Z,79.20
2017-10-30T03:53:08.224Z,80.30
2017-10-30T03:55:34.453Z,80.00
2017-10-30T03:58:00.662Z,81.10
2017-10-30T04:00:26.910Z,81.40
2017-10-30T04:02:53.133Z,81.00
2017-10-30T04:05:19.335Z,79.60
2017-10-30T04:07:45.549Z,79.00
2017-10-30T04:10:18.941Z,78.50
2017-10-30T04:12:45.514Z,78.90
2017-10-30T04:15:11.721Z,78.90
2017-10-30T04:17:37.914Z,79.10
2017-10-30T04:20:04.139Z,79.20
2017-10-30T04:22:30.345Z,78.50
2017-10-30T04:24:56.576Z,78.70
2017-10-30T04:27:22.790Z,78.00
2017-10-30T04:29:48.996Z,77.90
2017-10-30T04:32:15.199Z,79.00
2017-10-30T04:34:41.777Z,79.00
2017-10-30T04:37:07.979Z,79.00
2017-10-30T04:39:34.184Z,78.90
2017-10-30T04:42:00.378Z,80.10
2017-10-30T04:44:26.597Z,79.80
2017-10-30T04:46:52.805Z,79.60
2017-10-30T04:49:20.732Z,79.10
2017-10-30T04:51:46.916Z,78.40
2017-10-30T04:54:13.102Z,79.10
2017-10-30T04:56:39.325Z,79.20
2017-10-30T04:59:05.885Z,79.60
2017-10-30T05:01:32.110Z,79.60
2017-10-30T05:03:58.348Z,79.80
2017-10-30T05:06:24.582Z,80.40
2017-10-30T05:08:50.793Z,80.50
2017-10-30T05:11:17.013Z,81.80
2017-10-30T05:13:43.246Z,81.00
2017-10-30T05:16:09.461Z,81.10
2017-10-30T05:18:35.651Z,80.50
2017-10-30T05:21:01.874Z,80.20
2017-10-30T05:23:28.083Z,80.40
2017-10-30T05:25:54.316Z,80.70
2017-10-30T05:28:27.437Z,81.10
2017-10-30T05:30:53.656Z,80.70
2017-10-30T05:33:20.715Z,80.50
2017-10-30T05:35:47.343Z,79.80
2017-10-30T05:38:13.517Z,79.80
2017-10-30T05:40:39.741Z,79.50
2017-10-30T05:43:05.974Z,79.20
2017-10-30T05:45:32.217Z,80.00
2017-10-30T05:48:05.204Z,79.50
2017-10-30T05:50:31.427Z,79.60
2017-10-30T05:52:58.637Z,79.60
2017-10-30T05:55:24.866Z,79.70
2017-10-30T05:57:51.083Z,79.80
2017-10-30T06:00:17.323Z,79.90
2017-10-30T06:02:43.923Z,79.10
2017-10-30T06:05:10.116Z,79.10
2017-10-30T06:07:36.337Z,78.80
2017-10-30T06:10:02.547Z,78.20
2017-10-30T06:12:29.164Z,78.10
2017-10-30T06:14:55.774Z,78.10
2017-10-30T06:17:21.997Z,78.10
2017-10-30T06:19:48.197Z,77.70
2017-10-30T06:22:14.886Z,77.90
2017-10-30T06:24:41.113Z,78.30
2017-10-30T06:27:07.343Z,77.70
2017-10-30T06:29:33.589Z,78.00
2017-10-30T06:32:00.191Z,77.80
2017-10-30T06:34:26.381Z,77.80
2017-10-30T06:36:52.617Z,76.90
2017-10-30T06:39:18.810Z,75.20
2017-10-30T06:41:45.415Z,76.20
2017-10-30T06:44:11.613Z,76.20
2017-10-30T06:46:37.832Z,74.80
2017-10-30T06:49:04.060Z,75.80
2017-10-30T06:51:30.290Z,75.30
2017-10-30T06:53:56.514Z,76.30
2017-10-30T06:56:22.761Z,76.80
2017-10-30T06:58:49.006Z,76.00
2017-10-30T07:01:15.192Z,76.10
2017-10-30T07:03:41.415Z,74.40
2017-10-30T07:06:10.420Z,75.20
2017-10-30T07:08:37.562Z,75.40
2017-10-30T07:11:03.764Z,74.40
2017-10-30T07:13:30.403Z,73.80
2017-10-30T07:15:57.020Z,73.60
2017-10-30T07:18:23.277Z,73.60
2017-10-30T07:20:49.907Z,72.30
2017-10-30T07:23:16.514Z,72.70
2017-10-30T07:25:42.723Z,72.70
2017-10-30T07:28:08.938Z,72.30
2017-10-30T07:30:35.205Z,72.30
2017-10-30T07:33:01.440Z,71.70
2017-10-30T07:35:27.669Z,72.40
2017-10-30T07:37:53.882Z,71.90
2017-10-30T07:40:20.150Z,72.60
2017-10-30T07:42:46.412Z,72.30
2017-10-30T07:45:12.645Z,73.50
2017-10-30T07:47:38.868Z,73.70
2017-10-30T07:50:05.097Z,73.20
2017-10-30T07:52:31.379Z,73.90
2017-10-30T07:54:57.642Z,74.00
2017-10-30T07:57:23.892Z,74.80
2017-10-30T07:59:50.141Z,74.60
2017-10-30T08:02:16.367Z,74.90
2017-10-30T08:04:42.676Z,73.80
2017-10-30T08:07:08.931Z,74.50
2017-10-30T08:09:35.179Z,74.00
2017-10-30T08:12:01.475Z,72.40
2017-10-30T08:14:27.756Z,70.90
2017-10-30T08:16:54.030Z,71.70
2017-10-30T08:19:20.305Z,68.70
2017-10-30T08:21:46.584Z,69.90
2017-10-30T08:24:12.878Z,71.20
2017-10-30T08:26:39.130Z,68.00
2017-10-30T08:29:05.388Z,68.70
2017-10-30T08:31:31.633Z,68.80
2017-10-30T08:33:57.904Z,66.00
2017-10-30T08:36:24.161Z,67.20
2017-10-30T08:38:50.448Z,67.10
2017-10-30T08:41:16.688Z,67.10
2017-10-30T08:43:42.938Z,65.70
2017-10-30T08:46:09.175Z,66.90
2017-10-30T08:48:35.465Z,67.50
2017-10-30T08:51:01.708Z,68.30
2017-10-30T08:53:27.986Z,65.90
2017-10-30T08:55:54.237Z,67.70
2017-10-30T08:58:20.874Z,67.60
2017-10-30T09:00:47.467Z,67.80
2017-10-30T09:03:13.735Z,67.80
2017-10-30T09:05:40.412Z,66.00
2017-10-30T09:08:07.679Z,66.00
2017-10-30T09:10:33.974Z,67.60
2017-10-30T09:13:00.216Z,67.90
2017-10-30T09:15:26.476Z,68.20
2017-10-30T09:17:52.725Z,68.50
2017-10-30T09:20:19.370Z,66.20
2017-10-30T09:22:46.054Z,67.90
2017-10-30T09:25:12.318Z,67.90
2017-10-30T09:27:38.604Z,70.00
2017-10-30T09:30:04.856Z,68.90
2017-10-30T09:32:31.124Z,68.10
2017-10-30T09:34:57.775Z,66.70
2017-10-30T09:37:24.461Z,66.90
2017-10-30T09:39:50.740Z,66.90
2017-10-30T09:42:17.355Z,67.00
2017-10-30T09:44:43.655Z,67.00
2017-10-30T09:47:09.909Z,63.40
2017-10-30T09:49:36.193Z,61.60
2017-10-30T09:52:02.415Z,62.00
2017-10-30T09:54:28.714Z,58.30
2017-10-30T09:56:54.981Z,54.50
2017-10-30T09:59:21.311Z,51.50
2017-10-30T10:01:47.605Z,48.30
2017-10-30T10:04:13.932Z,45.50
2017-10-30T10:06:40.188Z,46.60
2017-10-30T10:09:06.457Z,48.70
2017-10-30T10:11:32.687Z,51.40
2017-10-30T10:13:58.955Z,53.50
2017-10-30T10:16:25.614Z,57.60
2017-10-30T10:18:51.861Z,57.60
2017-10-30T10:21:18.123Z,58.50
2017-10-30T10:23:44.404Z,55.20
2017-10-30T10:26:10.664Z,45.50
2017-10-30T10:28:36.986Z,40.90
2017-10-30T10:31:03.239Z,39.20
2017-10-30T10:33:29.477Z,39.00
2017-10-30T10:35:56.141Z,47.40
2017-10-30T10:38:22.417Z,47.40
2017-10-30T10:40:48.932Z,48.60
2017-10-30T10:43:15.185Z,47.80
2017-10-30T10:45:41.446Z,45.50
2017-10-30T10:48:08.090Z,38.60
2017-10-30T10:50:34.747Z,32.40
2017-10-30T10:53:01.008Z,32.40
2017-10-30T10:55:27.281Z,32.00
2017-10-30T10:57:53.889Z,27.70
2017-10-30T11:00:20.200Z,27.80
2017-10-30T11:02:46.914Z,28.50
2017-10-30T11:05:13.173Z,32.20
2017-10-30T11:07:39.414Z,33.70
2017-10-30T11:10:05.650Z,33.00
2017-10-30T11:12:31.908Z,33.10
2017-10-30T11:14:58.185Z,33.90
2017-10-30T11:17:24.444Z,32.70
2017-10-30T11:19:50.705Z,32.20
2017-10-30T11:22:16.964Z,32.70
2017-10-30T11:24:43.198Z,33.30
2017-10-30T11:27:09.457Z,34.50
2017-10-30T11:29:35.683Z,35.60
2017-10-30T11:32:01.941Z,34.10
2017-10-30T11:34:28.196Z,30.50
2017-10-30T11:36:55.431Z,28.30
2017-10-30T11:39:21.683Z,27.20
2017-10-30T11:41:48.839Z,29.40
2017-10-30T11:44:15.083Z,31.20
2017-10-30T11:46:41.347Z,35.30
2017-10-30T11:49:07.592Z,38.30
2017-10-30T11:51:33.832Z,40.30
2017-10-30T11:54:00.081Z,37.90
2017-10-30T11:56:26.415Z,31.40
2017-10-30T11:58:53.068Z,34.50
2017-10-30T12:01:19.321Z,34.50
2017-10-30T12:03:45.553Z,37.80
2017-10-30T12:06:11.826Z,41.00
2017-10-30T12:08:38.087Z,43.40
2017-10-30T12:11:04.338Z,45.60
2017-10-30T12:13:31.343Z,48.70
2017-10-30T12:15:57.554Z,48.70
2017-10-30T12:18:23.854Z,49.80
2017-10-30T12:20:50.092Z,50.10
2017-10-30T12:23:16.507Z,51.10
2017-10-30T12:25:43.102Z,52.90
2017-10-30T12:28:10.203Z,52.90
2017-10-30T12:30:37.281Z,52.70
2017-10-30T12:33:03.531Z,52.30
2017-10-30T12:35:29.827Z,51.80
2017-10-30T12:37:56.086Z,49.30
2017-10-30T12:40:22.319Z,51.10
2017-10-30T12:42:48.567Z,52.20
2017-10-30T12:45:15.175Z,53.80
2017-10-30T12:47:41.458Z,53.80
2017-10-30T12:50:07.676Z,53.30
2017-10-30T12:52:34.343Z,54.10
2017-10-30T12:55:00.633Z,54.10
2017-10-30T12:57:26.923Z,55.00
2017-10-30T12:59:53.181Z,52.90
2017-10-30T13:02:19.837Z,55.60
2017-10-30T13:04:46.550Z,51.70
2017-10-30T13:07:12.841Z,51.70
2017-10-30T13:09:39.131Z,53.40
2017-10-30T13:12:05.771Z,53.00
2017-10-30T13:14:32.702Z,54.30
2017-10-30T13:16:58.936Z,54.30
2017-10-30T13:19:25.201Z,54.10
2017-10-30T13:21:52.246Z,55.60
2017-10-30T13:24:18.517Z,55.20
2017-10-30T13:26:44.756Z,54.60
2017-10-30T13:29:11.016Z,54.70
2017-10-30T13:31:37.599Z,53.30
2017-10-30T13:34:04.249Z,53.30
2017-10-30T13:36:30.512Z,55.40
2017-10-30T13:38:57.172Z,55.00
2017-10-30T13:41:23.387Z,55.00
2017-10-30T13:43:50.012Z,55.70
2017-10-30T13:46:16.646Z,54.20
2017-10-30T13:48:50.240Z,56.30
2017-10-30T13:51:16.839Z,55.00
2017-10-30T13:53:43.112Z,55.00
2017-10-30T13:56:09.345Z,54.20
2017-10-30T13:58:35.973Z,56.70
2017-10-30T14:01:02.628Z,57.00
2017-10-30T14:03:29.623Z,58.10
2017-10-30T14:05:56.396Z,58.00
2017-10-30T14:08:22.916Z,58.00
2017-10-30T14:10:49.192Z,57.00
2017-10-30T14:13:15.438Z,57.80
2017-10-30T14:15:41.725Z,58.50
2017-10-30T14:18:10.251Z,58.20
2017-10-30T14:20:36.610Z,59.00
2017-10-30T14:23:02.865Z,59.30
2017-10-30T14:25:29.454Z,58.80
2017-10-30T14:27:56.430Z,59.60
2017-10-30T14:30:22.745Z,59.40
2017-10-30T14:32:49.034Z,60.20
2017-10-30T14:35:15.312Z,59.50
2017-10-30T14:37:41.611Z,61.70
2017-10-30T14:40:07.954Z,62.40
2017-10-30T14:42:34.225Z,60.20
2017-10-30T14:45:00.857Z,60.70
2017-10-30T14:47:27.104Z,60.70
2017-10-30T14:49:53.747Z,61.10
2017-10-30T14:52:20.014Z,61.10
2017-10-30T14:54:46.301Z,61.20
2017-10-30T14:57:12.577Z,60.80
2017-10-30T14:59:38.884Z,60.60
2017-10-30T15:02:05.161Z,60.90
2017-10-30T15:04:31.862Z,59.50
2017-10-30T15:06:58.198Z,59.40
2017-10-30T15:09:24.517Z,61.00
2017-10-30T15:11:50.812Z,61.10
2017-10-30T15:14:17.481Z,61.40
2017-10-30T15:16:43.725Z,61.50
2017-10-30T15:19:09.997Z,61.80
2017-10-30T15:21:36.305Z,60.50
2017-10-30T15:24:02.570Z,61.40
2017-10-30T15:26:29.215Z,60.10
2017-10-30T15:28:55.515Z,60.00
2017-10-30T15:31:21.813Z,60.80
2017-10-30T15:33:48.090Z,61.80
2017-10-30T15:36:14.730Z,63.20
2017-10-30T15:38:41.370Z,62.40
2017-10-30T15:41:07.969Z,61.30
2017-10-30T15:43:34.239Z,61.30
2017-10-30T15:46:00.484Z,62.60
2017-10-30T15:48:26.759Z,61.90
2017-10-30T15:50:53.046Z,62.60
2017-10-30T15:53:19.382Z,63.80
2017-10-30T15:55:46.553Z,63.50
2017-10-30T15:58:12.800Z,63.60
2017-10-30T16:00:39.122Z,62.00
2017-10-30T16:03:05.395Z,62.90
2017-10-30T16:05:31.667Z,63.60
2017-10-30T16:07:57.933Z,63.70
2017-10-30T16:10:24.566Z,62.90
2017-10-30T16:12:50.871Z,62.90
2017-10-30T16:15:17.303Z,63.10
2017-10-30T16:17:43.617Z,63.30
2017-10-30T16:20:09.868Z,63.90
2017-10-30T16:22:36.131Z,63.20
2017-10-30T16:25:02.382Z,64.90
2017-10-30T16:27:28.742Z,63.90
2017-10-30T16:29:54.993Z,64.00
2017-10-30T16:32:21.283Z,65.80
2017-10-30T16:34:48.426Z,65.90
2017-10-30T16:37:16.535Z,65.90
2017-10-30T16:39:42.780Z,66.10
2017-10-30T16:42:09.066Z,66.60
2017-10-30T16:44:35.346Z,66.80
2017-10-30T16:47:01.666Z,67.00
2017-10-30T16:49:27.890Z,67.40
2017-10-30T16:51:54.257Z,68.20
2017-10-30T16:54:20.525Z,68.30
2017-10-30T16:56:46.814Z,68.40
2017-10-30T16:59:13.137Z,68.10
2017-10-30T17:01:39.832Z,67.80
2017-10-30T17:04:06.350Z,68.30
2017-10-30T17:06:32.581Z,68.70
2017-10-30T17:08:58.866Z,68.20
2017-10-30T17:11:25.089Z,68.40
2017-10-30T17:13:51.644Z,68.40
2017-10-30T17:16:17.928Z,68.10
2017-10-30T17:18:44.217Z,67.00
2017-10-30T17:21:10.478Z,68.40
2017-10-30T17:23:36.740Z,68.30
2017-10-30T17:26:03.346Z,67.60
2017-10-30T17:28:29.646Z,67.60
2017-10-30T17:30:55.958Z,68.00
2017-10-30T17:33:22.253Z,68.30
2017-10-30T17:35:48.932Z,67.80
2017-10-30T17:38:15.223Z,67.80
2017-10-30T17:40:41.533Z,68.40
2017-10-30T17:43:07.819Z,68.60
2017-10-30T17:45:34.087Z,67.80
2017-10-30T17:48:00.379Z,67.80
2017-10-30T17:50:27.502Z,69.00
2017-10-30T17:52:54.248Z,69.00
2017-10-30T17:55:20.550Z,69.00
2017-10-30T17:57:46.793Z,69.20
2017-10-30T18:00:13.470Z,69.40
2017-10-30T18:02:40.047Z,69.40
2017-10-30T18:05:06.475Z,69.80
2017-10-30T18:07:32.816Z,70.50
2017-10-30T18:09:59.572Z,70.50
2017-10-30T18:12:26.572Z,70.60
2017-10-30T18:14:53.132Z,70.80
2017-10-30T18:17:19.796Z,71.20
2017-10-30T18:19:46.330Z,71.20
2017-10-30T18:22:18.737Z,71.30
2017-10-30T18:24:45.181Z,71.60
2017-10-30T18:27:11.572Z,71.90
2017-10-30T18:29:38.196Z,72.30
2017-10-30T18:32:04.421Z,72.40
2017-10-30T18:34:31.969Z,72.50
2017-10-30T18:36:59.050Z,72.70
2017-10-30T18:39:25.951Z,73.20
2017-10-30T18:41:52.165Z,73.20
2017-10-30T18:44:18.518Z,73.60
2017-10-30T18:46:44.897Z,73.40
2017-10-30T18:49:11.252Z,73.20
2017-10-30T18:51:37.609Z,73.50
2017-10-30T18:54:03.857Z,73.60
2017-10-30T18:56:30.113Z,73.60
2017-10-30T18:58:56.655Z,73.70
2017-10-30T19:01:22.899Z,73.90
2017-10-30T19:03:49.256Z,74.40
2017-10-30T19:06:15.526Z,74.30
2017-10-30T19:08:43.449Z,74.60
2017-10-30T19:11:09.796Z,74.70
2017-10-30T19:13:36.113Z,75.00
2017-10-30T19:16:02.334Z,75.10
2017-10-30T19:18:28.595Z,75.30
2017-10-30T19:20:54.933Z,75.00
2017-10-30T19:23:21.710Z,75.20
2017-10-30T19:25:47.967Z,75.20
2017-10-30T19:28:14.313Z,75.80
2017-10-30T19:30:40.723Z,75.80
2017-10-30T19:33:07.028Z,75.10
2017-10-30T19:35:34.456Z,75.30
2017-10-30T19:38:00.815Z,75.20
2017-10-30T19:40:27.183Z,75.60
2017-10-30T19:42:53.510Z,75.80
2017-10-30T19:45:20.416Z,75.90
2017-10-30T19:47:46.765Z,75.60
2017-10-30T19:50:13.058Z,75.80
2017-10-30T19:52:40.002Z,75.60
2017-10-30T19:55:07.488Z,76.10
2017-10-30T19:57:33.733Z,76.10
2017-10-30T20:00:00.918Z,76.60
2017-10-30T20:02:27.597Z,75.80
2017-10-30T20:04:53.997Z,75.80
2017-10-30T20:10:22.945Z,76.30
2017-10-30T20:12:49.183Z,76.80
2017-10-30T20:15:15.456Z,76.00
2017-10-30T20:17:41.727Z,76.80
2017-10-30T20:20:08.007Z,76.70
2017-10-30T20:22:35.020Z,76.60
2017-10-30T20:25:01.352Z,76.40
2017-10-30T20:27:27.684Z,75.60
2017-10-30T20:29:53.993Z,74.80
2017-10-30T20:32:20.415Z,75.70
2017-10-30T20:34:46.680Z,74.60
2017-10-30T20:37:12.954Z,74.50
2017-10-30T20:39:39.719Z,74.50
2017-10-30T20:42:06.850Z,74.20
2017-10-30T20:44:35.617Z,74.40
2017-10-30T20:47:02.349Z,74.60
2017-10-30T20:49:29.578Z,74.50
2017-10-30T20:51:55.976Z,74.00
2017-10-30T20:54:22.534Z,74.10
2017-10-30T20:56:48.880Z,74.10
2017-10-30T20:59:15.211Z,74.40
2017-10-30T21:01:41.521Z,74.40
2017-10-30T21:04:07.922Z,74.40
2017-10-30T21:06:34.344Z,73.90
2017-10-30T21:09:00.973Z,74.50
2017-10-30T21:11:27.598Z,74.30
2017-10-30T21:13:54.901Z,74.30
2017-10-30T21:16:21.145Z,74.60
2017-10-30T21:18:47.406Z,73.80
2017-10-30T21:21:13.623Z,73.80
2017-10-30T21:23:39.953Z,73.90
2017-10-30T21:26:06.247Z,74.60
2017-10-30T21:28:33.580Z,74.60
2017-10-30T21:30:59.841Z,74.60
2017-10-30T21:33:26.058Z,74.70
2017-10-30T21:35:52.817Z,74.80
2017-10-30T21:38:19.071Z,74.80
2017-10-30T21:40:45.372Z,74.70
2017-10-30T21:43:11.655Z,74.90
2017-10-30T21:45:38.573Z,75.10
2017-10-30T21:48:05.317Z,75.10
2017-10-30T21:50:32.460Z,75.30
2017-10-30T21:52:59.625Z,75.40
2017-10-30T21:55:25.941Z,75.60
2017-10-30T21:57:52.198Z,75.70
2017-10-30T22:00:18.461Z,75.90
2017-10-30T22:02:44.767Z,76.30
2017-10-30T22:05:11.029Z,76.80
2017-10-30T22:07:37.248Z,77.10
2017-10-30T22:10:03.491Z,76.80
2017-10-30T22:12:30.783Z,77.30
2017-10-30T22:14:57.273Z,77.30
2017-10-30T22:17:23.576Z,76.90
2017-10-30T22:19:49.831Z,76.60
2017-10-30T22:22:16.074Z,76.80
2017-10-30T22:24:42.317Z,76.30
2017-10-30T22:27:08.551Z,76.50
2017-10-30T22:29:34.790Z,76.60
2017-10-30T22:32:01.038Z,76.80
2017-10-30T22:34:27.668Z,76.50
2017-10-30T22:36:54.736Z,76.50
2017-10-30T22:39:21.258Z,76.70
2017-10-30T22:41:48.122Z,77.40
2017-10-30T22:44:14.458Z,77.40
2017-10-30T22:46:40.687Z,78.90
2017-10-30T22:49:07.002Z,79.40
2017-10-30T22:51:33.196Z,79.40
2017-10-30T22:53:59.465Z,78.70
2017-10-30T22:56:25.701Z,78.30
2017-10-30T22:58:51.919Z,78.10
2017-10-30T23:01:18.158Z,79.10
2017-10-30T23:03:44.457Z,79.20
2017-10-30T23:06:11.070Z,78.30
2017-10-30T23:08:37.294Z,78.30
2017-10-30T23:11:03.545Z,77.80
2017-10-30T23:13:30.169Z,77.70
2017-10-30T23:15:56.398Z,77.70
2017-10-30T23:18:22.625Z,77.20
2017-10-30T23:20:48.830Z,78.30
2017-10-30T23:23:15.049Z,78.20
2017-10-30T23:25:41.275Z,77.70
2017-10-30T23:28:07.513Z,77.50
2017-10-30T23:30:33.784Z,77.40
2017-10-30T23:33:00.375Z,77.00
2017-10-30T23:35:26.607Z,77.10
2017-10-30T23:37:52.838Z,77.10
2017-10-30T23:40:19.094Z,77.40
2017-10-30T23:42:45.316Z,77.20
2017-10-30T23:45:12.050Z,77.20
2017-10-30T23:47:38.257Z,76.70
2017-10-30T23:50:04.489Z,76.90
2017-10-30T23:52:30.697Z,77.00
2017-10-30T23:54:56.945Z,76.90
2017-10-30T23:57:23.188Z,77.30
2017-10-30T23:59:49.407Z,77.40
